sensor_id;sensor_type;location;lat;lon;timestamp;pressure;altitude;pressure_sealevel;temperature;humidity
57050;BME280;42935;50.966;16.992;2023-02-14T00:00:10;103568.96;;;3.57;100.00
57050;BME280;42935;50.966;16.992;2023-02-14T00:03:20;103579.00;;;3.67;100.00
57050;BME280;42935;50.966;16.992;2023-02-14T00:06:32;103578.39;;;3.61;100.00
57050;BME280;42935;50.966;16.992;2023-02-14T00:09:44;103568.57;;;3.50;100.00
57050;BME280;42935;50.966;16.992;2023-02-14T00:13:00;103574.09;;;3.51;100.00
57050;BME280;42935;50.966;16.992;2023-02-14T00:16:16;103561.77;;;3.50;100.00
57050;BME280;42935;50.966;16.992;2023-02-14T00:19:33;103554.47;;;3.36;100.00
57050;BME280;42935;50.966;16.992;2023-02-14T00:22:52;103540.25;;;3.44;100.00
57050;BME280;42935;50.966;16.992;2023-02-14T00:26:14;103558.16;;;3.50;100.00
57050;BME280;42935;50.966;16.992;2023-02-14T00:29:27;103553.89;;;3.54;100.00
57050;BME280;42935;50.966;16.992;2023-02-14T00:32:37;103559.98;;;3.46;100.00
57050;BME280;42935;50.966;16.992;2023-02-14T00:35:56;103557.70;;;3.51;100.00
57050;BME280;42935;50.966;16.992;2023-02-14T00:39:34;103564.39;;;3.42;100.00
57050;BME280;42935;50.966;16.992;2023-02-14T00:42:44;103548.30;;;3.42;100.00
57050;BME280;42935;50.966;16.992;2023-02-14T00:45:57;103572.11;;;3.49;100.00
57050;BME280;42935;50.966;16.992;2023-02-14T00:49:06;103569.96;;;3.40;100.00
57050;BME280;42935;50.966;16.992;2023-02-14T00:52:20;103556.40;;;3.31;100.00
57050;BME280;42935;50.966;16.992;2023-02-14T00:55:32;103576.41;;;3.42;100.00
57050;BME280;42935;50.966;16.992;2023-02-14T00:58:42;103578.17;;;3.42;100.00
57050;BME280;42935;50.966;16.992;2023-02-14T01:01:51;103574.85;;;3.37;100.00
57050;BME280;42935;50.966;16.992;2023-02-14T01:05:01;103577.98;;;3.42;100.00
57050;BME280;42935;50.966;16.992;2023-02-14T01:08:11;103571.13;;;3.31;100.00
57050;BME280;42935;50.966;16.992;2023-02-14T01:11:24;103558.69;;;3.25;100.00
57050;BME280;42935;50.966;16.992;2023-02-14T01:14:42;103561.83;;;3.33;100.00
57050;BME280;42935;50.966;16.992;2023-02-14T01:17:53;103561.87;;;3.31;100.00
57050;BME280;42935;50.966;16.992;2023-02-14T01:21:14;103553.92;;;3.23;100.00
57050;BME280;42935;50.966;16.992;2023-02-14T01:24:24;103517.87;;;3.03;100.00
57050;BME280;42935;50.966;16.992;2023-02-14T01:27:40;103561.48;;;3.27;100.00
57050;BME280;42935;50.966;16.992;2023-02-14T01:30:51;103551.98;;;3.39;100.00
57050;BME280;42935;50.966;16.992;2023-02-14T01:34:05;103554.20;;;3.31;100.00
57050;BME280;42935;50.966;16.992;2023-02-14T01:37:16;103564.94;;;3.28;100.00
57050;BME280;42935;50.966;16.992;2023-02-14T01:40:30;103554.19;;;3.26;100.00
57050;BME280;42935;50.966;16.992;2023-02-14T01:43:49;103568.02;;;3.30;100.00
57050;BME280;42935;50.966;16.992;2023-02-14T01:46:59;103576.80;;;3.36;100.00
57050;BME280;42935;50.966;16.992;2023-02-14T01:53:34;103554.73;;;3.32;100.00
57050;BME280;42935;50.966;16.992;2023-02-14T01:56:46;103560.20;;;3.26;100.00
57050;BME280;42935;50.966;16.992;2023-02-14T01:59:58;103559.16;;;3.26;100.00
57050;BME280;42935;50.966;16.992;2023-02-14T02:06:44;103558.51;;;3.19;100.00
57050;BME280;42935;50.966;16.992;2023-02-14T02:10:03;103561.45;;;3.14;100.00
57050;BME280;42935;50.966;16.992;2023-02-14T02:13:20;103553.48;;;3.11;100.00
57050;BME280;42935;50.966;16.992;2023-02-14T02:53:50;103533.30;;;3.02;100.00
57050;BME280;42935;50.966;16.992;2023-02-14T02:57:06;103534.16;;;3.02;100.00
57050;BME280;42935;50.966;16.992;2023-02-14T03:00:17;103528.59;;;2.90;100.00
57050;BME280;42935;50.966;16.992;2023-02-14T03:03:29;103535.66;;;2.85;100.00
57050;BME280;42935;50.966;16.992;2023-02-14T03:06:56;103538.66;;;2.83;100.00
57050;BME280;42935;50.966;16.992;2023-02-14T03:20:22;103530.38;;;2.78;100.00
57050;BME280;42935;50.966;16.992;2023-02-14T03:23:44;103528.47;;;2.79;100.00
57050;BME280;42935;50.966;16.992;2023-02-14T03:27:09;103517.43;;;2.69;100.00
57050;BME280;42935;50.966;16.992;2023-02-14T03:34:00;103525.80;;;2.83;100.00
57050;BME280;42935;50.966;16.992;2023-02-14T03:37:23;103519.94;;;2.78;100.00
57050;BME280;42935;50.966;16.992;2023-02-14T03:40:55;103525.18;;;2.79;100.00
57050;BME280;42935;50.966;16.992;2023-02-14T03:44:09;103529.54;;;2.75;100.00
57050;BME280;42935;50.966;16.992;2023-02-14T03:47:21;103522.11;;;2.71;100.00
57050;BME280;42935;50.966;16.992;2023-02-14T03:50:33;103524.56;;;2.68;100.00
57050;BME280;42935;50.966;16.992;2023-02-14T03:53:46;103521.25;;;2.69;100.00
57050;BME280;42935;50.966;16.992;2023-02-14T04:00:29;103541.64;;;2.73;100.00
57050;BME280;42935;50.966;16.992;2023-02-14T04:03:42;103548.91;;;2.77;100.00
57050;BME280;42935;50.966;16.992;2023-02-14T04:07:09;103541.89;;;2.65;100.00
57050;BME280;42935;50.966;16.992;2023-02-14T04:10:24;103555.84;;;2.76;100.00
57050;BME280;42935;50.966;16.992;2023-02-14T04:13:36;103551.72;;;2.72;100.00
57050;BME280;42935;50.966;16.992;2023-02-14T04:16:46;103555.06;;;2.74;100.00
57050;BME280;42935;50.966;16.992;2023-02-14T04:20:07;103550.76;;;2.66;100.00
57050;BME280;42935;50.966;16.992;2023-02-14T04:23:16;103547.29;;;2.68;100.00
57050;BME280;42935;50.966;16.992;2023-02-14T04:26:27;103557.75;;;2.71;100.00
57050;BME280;42935;50.966;16.992;2023-02-14T04:29:43;103553.54;;;2.69;100.00
57050;BME280;42935;50.966;16.992;2023-02-14T04:32:54;103553.19;;;2.65;100.00
57050;BME280;42935;50.966;16.992;2023-02-14T04:36:02;103548.14;;;2.57;100.00
57050;BME280;42935;50.966;16.992;2023-02-14T04:39:14;103556.46;;;2.64;100.00
57050;BME280;42935;50.966;16.992;2023-02-14T04:42:23;103534.72;;;2.50;100.00
57050;BME280;42935;50.966;16.992;2023-02-14T04:45:37;103549.73;;;2.66;100.00
57050;BME280;42935;50.966;16.992;2023-02-14T04:48:44;103546.59;;;2.57;100.00
57050;BME280;42935;50.966;16.992;2023-02-14T04:51:54;103538.35;;;2.51;100.00
57050;BME280;42935;50.966;16.992;2023-02-14T04:55:08;103548.02;;;2.51;100.00
57050;BME280;42935;50.966;16.992;2023-02-14T04:58:22;103543.23;;;2.50;100.00
57050;BME280;42935;50.966;16.992;2023-02-14T05:01:32;103547.40;;;2.54;100.00
57050;BME280;42935;50.966;16.992;2023-02-14T05:04:43;103548.59;;;2.53;100.00
57050;BME280;42935;50.966;16.992;2023-02-14T05:07:53;103540.73;;;2.55;100.00
57050;BME280;42935;50.966;16.992;2023-02-14T05:11:01;103535.05;;;2.46;100.00
57050;BME280;42935;50.966;16.992;2023-02-14T05:14:11;103549.94;;;2.51;100.00
57050;BME280;42935;50.966;16.992;2023-02-14T05:17:29;103550.55;;;2.54;100.00
57050;BME280;42935;50.966;16.992;2023-02-14T05:20:43;103547.98;;;2.54;100.00
57050;BME280;42935;50.966;16.992;2023-02-14T05:23:52;103541.88;;;2.47;100.00
57050;BME280;42935;50.966;16.992;2023-02-14T05:27:10;103544.91;;;2.45;100.00
57050;BME280;42935;50.966;16.992;2023-02-14T05:30:18;103550.80;;;2.50;100.00
57050;BME280;42935;50.966;16.992;2023-02-14T05:33:39;103534.83;;;2.45;100.00
57050;BME280;42935;50.966;16.992;2023-02-14T05:36:51;103537.61;;;2.38;100.00
57050;BME280;42935;50.966;16.992;2023-02-14T05:40:07;103551.58;;;2.44;100.00
57050;BME280;42935;50.966;16.992;2023-02-14T05:43:26;103542.65;;;2.39;100.00
57050;BME280;42935;50.966;16.992;2023-02-14T05:46:37;103551.48;;;2.40;100.00
57050;BME280;42935;50.966;16.992;2023-02-14T05:49:51;103551.59;;;2.36;100.00
57050;BME280;42935;50.966;16.992;2023-02-14T05:53:05;103546.03;;;2.31;100.00
57050;BME280;42935;50.966;16.992;2023-02-14T05:56:18;103546.78;;;2.35;100.00
57050;BME280;42935;50.966;16.992;2023-02-14T05:59:28;103569.18;;;2.39;100.00
57050;BME280;42935;50.966;16.992;2023-02-14T06:02:38;103560.84;;;2.34;100.00
57050;BME280;42935;50.966;16.992;2023-02-14T06:05:51;103566.16;;;2.36;100.00
57050;BME280;42935;50.966;16.992;2023-02-14T06:08:55;103583.97;;;2.45;100.00
57050;BME280;42935;50.966;16.992;2023-02-14T06:12:08;103567.80;;;2.34;100.00
57050;BME280;42935;50.966;16.992;2023-02-14T06:15:19;103575.87;;;2.43;100.00
57050;BME280;42935;50.966;16.992;2023-02-14T06:18:27;103569.31;;;2.32;100.00
57050;BME280;42935;50.966;16.992;2023-02-14T06:21:34;103579.26;;;2.36;100.00
57050;BME280;42935;50.966;16.992;2023-02-14T06:24:49;103588.33;;;2.43;100.00
57050;BME280;42935;50.966;16.992;2023-02-14T06:27:59;103537.83;;;2.12;100.00
57050;BME280;42935;50.966;16.992;2023-02-14T06:31:16;103594.86;;;2.46;100.00
57050;BME280;42935;50.966;16.992;2023-02-14T06:34:24;103600.55;;;2.42;100.00
57050;BME280;42935;50.966;16.992;2023-02-14T06:37:34;103595.66;;;2.43;100.00
57050;BME280;42935;50.966;16.992;2023-02-14T06:41:04;103596.36;;;2.38;100.00
57050;BME280;42935;50.966;16.992;2023-02-14T06:44:22;103588.04;;;2.30;100.00
57050;BME280;42935;50.966;16.992;2023-02-14T06:47:36;103596.79;;;2.45;100.00
57050;BME280;42935;50.966;16.992;2023-02-14T06:50:47;103597.05;;;2.52;100.00
57050;BME280;42935;50.966;16.992;2023-02-14T06:53:57;103596.55;;;2.41;100.00
57050;BME280;42935;50.966;16.992;2023-02-14T06:57:07;103598.76;;;2.43;100.00
57050;BME280;42935;50.966;16.992;2023-02-14T07:00:18;103606.58;;;2.46;100.00
57050;BME280;42935;50.966;16.992;2023-02-14T07:03:32;103594.20;;;2.39;100.00
57050;BME280;42935;50.966;16.992;2023-02-14T07:06:42;103607.44;;;2.50;100.00
57050;BME280;42935;50.966;16.992;2023-02-14T07:09:52;103603.84;;;2.45;100.00
57050;BME280;42935;50.966;16.992;2023-02-14T07:13:06;103602.10;;;2.44;100.00
57050;BME280;42935;50.966;16.992;2023-02-14T07:16:21;103602.13;;;2.42;100.00
57050;BME280;42935;50.966;16.992;2023-02-14T07:19:38;103614.16;;;2.50;100.00
57050;BME280;42935;50.966;16.992;2023-02-14T07:22:48;103610.50;;;2.43;100.00
57050;BME280;42935;50.966;16.992;2023-02-14T07:26:02;103621.00;;;2.53;100.00
57050;BME280;42935;50.966;16.992;2023-02-14T07:29:17;103618.51;;;2.48;100.00
57050;BME280;42935;50.966;16.992;2023-02-14T07:32:28;103611.68;;;2.43;100.00
57050;BME280;42935;50.966;16.992;2023-02-14T07:35:38;103613.80;;;2.44;100.00
57050;BME280;42935;50.966;16.992;2023-02-14T07:38:46;103610.80;;;2.45;100.00
57050;BME280;42935;50.966;16.992;2023-02-14T07:41:56;103604.34;;;2.44;100.00
57050;BME280;42935;50.966;16.992;2023-02-14T07:45:07;103606.25;;;2.41;100.00
57050;BME280;42935;50.966;16.992;2023-02-14T07:48:14;103622.45;;;2.53;100.00
57050;BME280;42935;50.966;16.992;2023-02-14T07:51:29;103608.09;;;2.46;100.00
57050;BME280;42935;50.966;16.992;2023-02-14T07:54:43;103603.78;;;2.51;100.00
57050;BME280;42935;50.966;16.992;2023-02-14T07:57:57;103607.13;;;2.46;100.00
57050;BME280;42935;50.966;16.992;2023-02-14T08:01:11;103623.41;;;2.60;100.00
57050;BME280;42935;50.966;16.992;2023-02-14T08:04:21;103619.41;;;2.60;100.00
57050;BME280;42935;50.966;16.992;2023-02-14T08:07:32;103617.06;;;2.56;100.00
57050;BME280;42935;50.966;16.992;2023-02-14T08:10:41;103615.72;;;2.61;100.00
57050;BME280;42935;50.966;16.992;2023-02-14T08:13:51;103627.55;;;2.68;100.00
57050;BME280;42935;50.966;16.992;2023-02-14T08:17:02;103627.93;;;2.69;100.00
57050;BME280;42935;50.966;16.992;2023-02-14T08:20:14;103629.45;;;2.71;100.00
57050;BME280;42935;50.966;16.992;2023-02-14T08:23:32;103623.67;;;2.74;100.00
57050;BME280;42935;50.966;16.992;2023-02-14T08:26:40;103629.82;;;2.87;100.00
57050;BME280;42935;50.966;16.992;2023-02-14T08:29:54;103621.31;;;2.75;100.00
57050;BME280;42935;50.966;16.992;2023-02-14T08:33:08;103620.72;;;2.73;100.00
57050;BME280;42935;50.966;16.992;2023-02-14T08:36:19;103619.30;;;2.74;100.00
57050;BME280;42935;50.966;16.992;2023-02-14T08:39:38;103627.59;;;2.91;100.00
57050;BME280;42935;50.966;16.992;2023-02-14T08:42:51;103628.73;;;3.04;100.00
57050;BME280;42935;50.966;16.992;2023-02-14T08:46:02;103617.31;;;3.00;100.00
57050;BME280;42935;50.966;16.992;2023-02-14T08:49:16;103620.31;;;2.94;100.00
57050;BME280;42935;50.966;16.992;2023-02-14T08:52:24;103632.97;;;2.99;100.00
57050;BME280;42935;50.966;16.992;2023-02-14T08:55:39;103630.51;;;3.09;100.00
57050;BME280;42935;50.966;16.992;2023-02-14T08:58:52;103635.12;;;3.00;100.00
57050;BME280;42935;50.966;16.992;2023-02-14T09:02:00;103626.84;;;3.01;100.00
57050;BME280;42935;50.966;16.992;2023-02-14T09:05:08;103643.45;;;3.03;100.00
57050;BME280;42935;50.966;16.992;2023-02-14T09:08:22;103626.54;;;3.07;100.00
57050;BME280;42935;50.966;16.992;2023-02-14T09:11:32;103628.06;;;2.97;100.00
57050;BME280;42935;50.966;16.992;2023-02-14T09:14:49;103647.01;;;3.12;100.00
57050;BME280;42935;50.966;16.992;2023-02-14T09:18:05;103635.40;;;3.06;100.00
57050;BME280;42935;50.966;16.992;2023-02-14T09:21:22;103641.49;;;3.14;100.00
57050;BME280;42935;50.966;16.992;2023-02-14T09:24:33;103633.51;;;2.95;100.00
57050;BME280;42935;50.966;16.992;2023-02-14T09:27:51;103647.51;;;3.15;100.00
57050;BME280;42935;50.966;16.992;2023-02-14T09:31:11;103655.26;;;3.18;100.00
57050;BME280;42935;50.966;16.992;2023-02-14T09:34:31;103640.14;;;3.10;100.00
57050;BME280;42935;50.966;16.992;2023-02-14T09:37:48;103643.58;;;3.24;100.00
57050;BME280;42935;50.966;16.992;2023-02-14T09:44:40;103653.87;;;3.19;100.00
57050;BME280;42935;50.966;16.992;2023-02-14T09:51:18;103653.45;;;3.27;100.00
57050;BME280;42935;50.966;16.992;2023-02-14T09:54:37;103654.95;;;3.24;100.00
57050;BME280;42935;50.966;16.992;2023-02-14T10:04:40;103653.55;;;3.41;100.00
57050;BME280;42935;50.966;16.992;2023-02-14T10:08:07;103645.63;;;3.33;100.00
57050;BME280;42935;50.966;16.992;2023-02-14T10:11:24;103648.06;;;3.36;100.00
57050;BME280;42935;50.966;16.992;2023-02-14T10:14:37;103643.18;;;3.28;100.00
57050;BME280;42935;50.966;16.992;2023-02-14T10:17:57;103588.34;;;3.11;100.00
57050;BME280;42935;50.966;16.992;2023-02-14T10:21:19;103636.70;;;3.34;100.00
57050;BME280;42935;50.966;16.992;2023-02-14T10:27:58;103639.02;;;3.53;100.00
57050;BME280;42935;50.966;16.992;2023-02-14T10:31:23;103640.73;;;3.55;100.00
57050;BME280;42935;50.966;16.992;2023-02-14T10:34:49;103611.15;;;3.47;100.00
57050;BME280;42935;50.966;16.992;2023-02-14T10:41:30;103621.09;;;3.62;100.00
57050;BME280;42935;50.966;16.992;2023-02-14T10:54:54;103612.73;;;3.70;100.00
57050;BME280;42935;50.966;16.992;2023-02-14T10:58:15;103615.10;;;3.71;100.00
57050;BME280;42935;50.966;16.992;2023-02-14T11:01:25;103619.45;;;3.82;100.00
57050;BME280;42935;50.966;16.992;2023-02-14T11:04:39;103614.63;;;3.65;100.00
57050;BME280;42935;50.966;16.992;2023-02-14T11:07:55;103607.01;;;3.65;100.00
57050;BME280;42935;50.966;16.992;2023-02-14T11:14:40;103611.40;;;3.87;100.00
57050;BME280;42935;50.966;16.992;2023-02-14T11:21:35;103605.03;;;4.05;100.00
57050;BME280;42935;50.966;16.992;2023-02-14T11:24:45;103544.41;;;3.81;100.00
57050;BME280;42935;50.966;16.992;2023-02-14T11:28:06;103586.61;;;4.08;100.00
57050;BME280;42935;50.966;16.992;2023-02-14T11:31:25;103582.66;;;3.96;100.00
57050;BME280;42935;50.966;16.992;2023-02-14T11:34:44;103587.80;;;3.97;100.00
57050;BME280;42935;50.966;16.992;2023-02-14T11:37:58;103581.71;;;3.92;100.00
57050;BME280;42935;50.966;16.992;2023-02-14T11:41:14;103572.57;;;3.89;100.00
57050;BME280;42935;50.966;16.992;2023-02-14T11:44:28;103574.89;;;3.86;100.00
57050;BME280;42935;50.966;16.992;2023-02-14T11:47:39;103574.35;;;4.15;100.00
57050;BME280;42935;50.966;16.992;2023-02-14T11:57:39;103574.05;;;4.19;99.92
57050;BME280;42935;50.966;16.992;2023-02-14T12:00:55;103555.40;;;4.21;99.95
57050;BME280;42935;50.966;16.992;2023-02-14T12:04:12;103546.42;;;4.09;96.21
57050;BME280;42935;50.966;16.992;2023-02-14T12:07:35;103560.63;;;4.35;99.88
57050;BME280;42935;50.966;16.992;2023-02-14T12:11:03;103556.71;;;4.17;99.84
57050;BME280;42935;50.966;16.992;2023-02-14T12:14:22;103561.79;;;4.38;98.08
57050;BME280;42935;50.966;16.992;2023-02-14T12:17:36;103552.02;;;4.32;94.25
57050;BME280;42935;50.966;16.992;2023-02-14T12:31:09;103544.79;;;4.38;91.13
57050;BME280;42935;50.966;16.992;2023-02-14T12:34:16;103535.09;;;4.46;90.92
57050;BME280;42935;50.966;16.992;2023-02-14T12:42:16;103545.52;;;4.61;90.39
57050;BME280;42935;50.966;16.992;2023-02-14T12:45:38;103543.70;;;4.44;91.30
57050;BME280;42935;50.966;16.992;2023-02-14T12:49:07;103540.78;;;4.55;89.82
57050;BME280;42935;50.966;16.992;2023-02-14T12:55:40;103536.05;;;4.57;87.00
57050;BME280;42935;50.966;16.992;2023-02-14T12:59:05;103538.61;;;4.56;89.67
57050;BME280;42935;50.966;16.992;2023-02-14T13:05:49;103534.61;;;4.51;90.09
57050;BME280;42935;50.966;16.992;2023-02-14T13:16:00;103517.69;;;4.38;90.13
57050;BME280;42935;50.966;16.992;2023-02-14T13:22:37;103505.01;;;4.41;87.97
57050;BME280;42935;50.966;16.992;2023-02-14T13:29:14;103514.13;;;4.51;87.95
57050;BME280;42935;50.966;16.992;2023-02-14T13:35:45;103508.72;;;4.28;88.07
57050;BME280;42935;50.966;16.992;2023-02-14T13:38:56;103499.16;;;4.38;90.35
57050;BME280;42935;50.966;16.992;2023-02-14T13:42:05;103525.91;;;4.17;92.01
57050;BME280;42935;50.966;16.992;2023-02-14T13:48:42;103510.95;;;3.85;94.21
57050;BME280;42935;50.966;16.992;2023-02-14T13:52:01;103510.92;;;3.72;93.64
57050;BME280;42935;50.966;16.992;2023-02-14T13:55:27;103528.36;;;3.92;97.02
57050;BME280;42935;50.966;16.992;2023-02-14T13:58:50;103512.71;;;3.87;96.80
57050;BME280;42935;50.966;16.992;2023-02-14T14:08:56;103511.57;;;3.90;95.39
57050;BME280;42935;50.966;16.992;2023-02-14T14:15:24;103524.57;;;3.69;94.83
57050;BME280;42935;50.966;16.992;2023-02-14T14:18:41;103523.06;;;3.53;98.84
57050;BME280;42935;50.966;16.992;2023-02-14T14:22:03;103518.66;;;3.53;100.00
57050;BME280;42935;50.966;16.992;2023-02-14T14:28:36;103518.34;;;3.68;98.24
57050;BME280;42935;50.966;16.992;2023-02-14T14:31:46;103525.55;;;3.80;99.03
57050;BME280;42935;50.966;16.992;2023-02-14T14:35:18;103525.93;;;3.68;100.00
57050;BME280;42935;50.966;16.992;2023-02-14T14:38:27;103525.48;;;3.63;100.00
57050;BME280;42935;50.966;16.992;2023-02-14T14:41:38;103516.65;;;3.61;100.00
57050;BME280;42935;50.966;16.992;2023-02-14T14:44:58;103521.64;;;3.62;100.00
57050;BME280;42935;50.966;16.992;2023-02-14T14:48:12;103510.64;;;3.61;100.00
57050;BME280;42935;50.966;16.992;2023-02-14T14:51:29;103509.68;;;3.81;100.00
57050;BME280;42935;50.966;16.992;2023-02-14T14:54:42;103511.89;;;4.05;100.00
57050;BME280;42935;50.966;16.992;2023-02-14T14:57:57;103513.69;;;4.00;99.63
57050;BME280;42935;50.966;16.992;2023-02-14T15:01:12;103503.56;;;3.92;99.46
57050;BME280;42935;50.966;16.992;2023-02-14T15:04:33;103503.03;;;4.04;99.65
57050;BME280;42935;50.966;16.992;2023-02-14T15:07:43;103487.35;;;3.62;99.86
57050;BME280;42935;50.966;16.992;2023-02-14T15:10:56;103499.31;;;3.69;97.77
57050;BME280;42935;50.966;16.992;2023-02-14T15:14:22;103500.30;;;3.64;99.05
57050;BME280;42935;50.966;16.992;2023-02-14T15:17:32;103496.86;;;3.89;99.21
57050;BME280;42935;50.966;16.992;2023-02-14T15:20:50;103491.45;;;3.55;98.08
57050;BME280;42935;50.966;16.992;2023-02-14T15:24:10;103497.00;;;3.71;100.00
57050;BME280;42935;50.966;16.992;2023-02-14T15:27:24;103493.53;;;3.83;100.00
57050;BME280;42935;50.966;16.992;2023-02-14T15:30:38;103492.92;;;3.72;100.00
57050;BME280;42935;50.966;16.992;2023-02-14T15:33:50;103497.36;;;3.57;100.00
57050;BME280;42935;50.966;16.992;2023-02-14T15:36:56;103482.77;;;3.68;98.84
57050;BME280;42935;50.966;16.992;2023-02-14T15:40:19;103476.32;;;3.75;97.56
57050;BME280;42935;50.966;16.992;2023-02-14T15:43:35;103482.34;;;3.69;98.46
57050;BME280;42935;50.966;16.992;2023-02-14T15:47:01;103478.67;;;3.40;100.00
57050;BME280;42935;50.966;16.992;2023-02-14T15:53:40;103486.00;;;3.63;100.00
57050;BME280;42935;50.966;16.992;2023-02-14T15:56:57;103477.26;;;3.60;100.00
57050;BME280;42935;50.966;16.992;2023-02-14T16:00:14;103474.95;;;3.42;100.00
57050;BME280;42935;50.966;16.992;2023-02-14T16:03:27;103466.84;;;3.54;100.00
57050;BME280;42935;50.966;16.992;2023-02-14T16:06:39;103456.18;;;3.44;100.00
57050;BME280;42935;50.966;16.992;2023-02-14T16:13:22;103456.92;;;2.93;100.00
57050;BME280;42935;50.966;16.992;2023-02-14T16:19:55;103482.74;;;3.00;100.00
57050;BME280;42935;50.966;16.992;2023-02-14T16:23:17;103476.47;;;2.94;100.00
57050;BME280;42935;50.966;16.992;2023-02-14T16:26:27;103470.42;;;2.86;100.00
57050;BME280;42935;50.966;16.992;2023-02-14T16:29:42;103480.04;;;2.87;100.00
57050;BME280;42935;50.966;16.992;2023-02-14T16:32:52;103488.19;;;3.11;100.00
57050;BME280;42935;50.966;16.992;2023-02-14T16:36:16;103484.03;;;3.03;100.00
57050;BME280;42935;50.966;16.992;2023-02-14T16:39:35;103475.46;;;3.06;100.00
57050;BME280;42935;50.966;16.992;2023-02-14T16:42:47;103486.54;;;3.13;100.00
57050;BME280;42935;50.966;16.992;2023-02-14T16:46:02;103483.13;;;3.34;100.00
57050;BME280;42935;50.966;16.992;2023-02-14T16:49:13;103487.04;;;3.13;100.00
57050;BME280;42935;50.966;16.992;2023-02-14T16:52:30;103488.38;;;3.31;100.00
57050;BME280;42935;50.966;16.992;2023-02-14T16:55:40;103479.12;;;2.98;100.00
57050;BME280;42935;50.966;16.992;2023-02-14T16:58:51;103484.34;;;3.07;100.00
57050;BME280;42935;50.966;16.992;2023-02-14T17:01:58;103486.84;;;3.09;98.74
57050;BME280;42935;50.966;16.992;2023-02-14T17:05:10;103474.72;;;3.22;97.85
57050;BME280;42935;50.966;16.992;2023-02-14T17:08:19;103487.41;;;3.23;96.63
57050;BME280;42935;50.966;16.992;2023-02-14T17:11:30;103483.35;;;3.13;97.10
57050;BME280;42935;50.966;16.992;2023-02-14T17:14:43;103482.24;;;3.30;96.10
57050;BME280;42935;50.966;16.992;2023-02-14T17:17:59;103482.63;;;3.21;96.09
57050;BME280;42935;50.966;16.992;2023-02-14T17:21:18;103487.15;;;3.28;98.62
57050;BME280;42935;50.966;16.992;2023-02-14T17:24:35;103485.34;;;3.44;99.75
57050;BME280;42935;50.966;16.992;2023-02-14T17:27:44;103487.91;;;3.37;100.00
57050;BME280;42935;50.966;16.992;2023-02-14T17:30:55;103488.04;;;3.26;100.00
57050;BME280;42935;50.966;16.992;2023-02-14T17:34:05;103492.93;;;3.11;100.00
57050;BME280;42935;50.966;16.992;2023-02-14T17:37:21;103490.92;;;2.74;100.00
57050;BME280;42935;50.966;16.992;2023-02-14T17:40:34;103477.77;;;2.77;100.00
57050;BME280;42935;50.966;16.992;2023-02-14T17:43:49;103485.06;;;2.94;100.00
57050;BME280;42935;50.966;16.992;2023-02-14T17:47:00;103470.51;;;3.04;100.00
57050;BME280;42935;50.966;16.992;2023-02-14T17:50:15;103478.91;;;3.09;100.00
57050;BME280;42935;50.966;16.992;2023-02-14T17:53:32;103480.84;;;3.08;100.00
57050;BME280;42935;50.966;16.992;2023-02-14T17:56:46;103463.44;;;2.87;100.00
57050;BME280;42935;50.966;16.992;2023-02-14T18:00:02;103474.13;;;2.78;100.00
57050;BME280;42935;50.966;16.992;2023-02-14T18:03:12;103491.66;;;2.57;100.00
57050;BME280;42935;50.966;16.992;2023-02-14T18:06:31;103483.91;;;2.65;100.00
57050;BME280;42935;50.966;16.992;2023-02-14T18:09:41;103484.90;;;2.45;100.00
57050;BME280;42935;50.966;16.992;2023-02-14T18:12:49;103484.33;;;2.52;100.00
57050;BME280;42935;50.966;16.992;2023-02-14T18:16:03;103479.76;;;2.56;100.00
57050;BME280;42935;50.966;16.992;2023-02-14T18:19:14;103478.88;;;2.55;100.00
57050;BME280;42935;50.966;16.992;2023-02-14T18:22:23;103481.07;;;2.40;100.00
57050;BME280;42935;50.966;16.992;2023-02-14T18:25:35;103450.55;;;2.20;100.00
57050;BME280;42935;50.966;16.992;2023-02-14T18:28:52;103461.98;;;2.21;100.00
57050;BME280;42935;50.966;16.992;2023-02-14T18:32:01;103483.25;;;2.34;100.00
57050;BME280;42935;50.966;16.992;2023-02-14T18:35:12;103479.69;;;2.48;100.00
57050;BME280;42935;50.966;16.992;2023-02-14T18:38:22;103473.41;;;2.33;100.00
57050;BME280;42935;50.966;16.992;2023-02-14T18:41:40;103466.37;;;2.15;100.00
57050;BME280;42935;50.966;16.992;2023-02-14T18:44:50;103477.58;;;2.07;100.00
57050;BME280;42935;50.966;16.992;2023-02-14T18:48:01;103476.72;;;2.15;100.00
57050;BME280;42935;50.966;16.992;2023-02-14T18:51:14;103469.21;;;2.05;100.00
57050;BME280;42935;50.966;16.992;2023-02-14T18:54:29;103465.26;;;2.04;100.00
57050;BME280;42935;50.966;16.992;2023-02-14T18:57:40;103469.91;;;2.09;100.00
57050;BME280;42935;50.966;16.992;2023-02-14T19:00:53;103465.98;;;2.17;100.00
57050;BME280;42935;50.966;16.992;2023-02-14T19:04:09;103466.37;;;2.12;100.00
57050;BME280;42935;50.966;16.992;2023-02-14T19:07:21;103448.55;;;2.07;100.00
57050;BME280;42935;50.966;16.992;2023-02-14T19:10:35;103454.58;;;2.16;100.00
57050;BME280;42935;50.966;16.992;2023-02-14T19:13:48;103458.84;;;2.10;100.00
57050;BME280;42935;50.966;16.992;2023-02-14T19:16:55;103447.57;;;1.90;100.00
57050;BME280;42935;50.966;16.992;2023-02-14T19:20:08;103444.02;;;1.92;100.00
57050;BME280;42935;50.966;16.992;2023-02-14T19:23:20;103441.09;;;2.01;100.00
57050;BME280;42935;50.966;16.992;2023-02-14T19:26:39;103437.20;;;1.94;100.00
57050;BME280;42935;50.966;16.992;2023-02-14T19:29:48;103441.17;;;1.94;100.00
57050;BME280;42935;50.966;16.992;2023-02-14T19:33:03;103436.18;;;1.98;100.00